createdAt,value
2022-07-30T00:00:05.819Z,0.00
2022-07-30T00:01:05.871Z,0.00
2022-07-30T00:02:05.877Z,0.00
2022-07-30T00:03:05.913Z,0.00
2022-07-30T00:04:06.040Z,0.00
2022-07-30T00:05:05.990Z,0.00
2022-07-30T00:06:06.034Z,0.00
2022-07-30T00:07:06.074Z,0.00
2022-07-30T00:08:06.106Z,0.00
2022-07-30T00:09:06.147Z,0.00
2022-07-30T00:10:06.181Z,0.00
2022-07-30T00:11:06.230Z,0.00
2022-07-30T00:12:06.257Z,0.00
2022-07-30T00:13:06.298Z,0.00
2022-07-30T00:14:06.335Z,0.00
2022-07-30T00:15:06.371Z,0.00
2022-07-30T00:16:06.409Z,0.00
2022-07-30T00:17:06.509Z,0.00
2022-07-30T00:18:06.486Z,0.00
2022-07-30T00:19:07.017Z,0.00
2022-07-30T00:20:06.565Z,0.00
2022-07-30T00:21:06.603Z,0.00
2022-07-30T00:22:06.640Z,0.00
2022-07-30T00:23:06.677Z,0.00
2022-07-30T00:24:06.719Z,0.00
2022-07-30T00:25:06.754Z,0.00
2022-07-30T00:26:06.791Z,0.00
2022-07-30T00:27:06.827Z,0.00
2022-07-30T00:28:06.868Z,0.00
2022-07-30T00:29:06.906Z,0.00
2022-07-30T00:30:06.945Z,0.00
2022-07-30T00:31:07.052Z,0.00
2022-07-30T00:32:07.025Z,0.00
2022-07-30T00:33:08.138Z,0.00
2022-07-30T00:34:07.095Z,0.00
2022-07-30T00:35:07.135Z,0.00
2022-07-30T00:36:07.173Z,0.00
2022-07-30T00:37:07.209Z,0.00
2022-07-30T00:38:07.253Z,0.00
2022-07-30T00:39:07.284Z,0.00
2022-07-30T00:40:07.324Z,0.00
2022-07-30T00:41:07.365Z,0.00
2022-07-30T00:42:07.401Z,0.00
2022-07-30T00:43:07.437Z,0.00
2022-07-30T00:44:07.482Z,0.00
2022-07-30T00:45:07.515Z,0.00
2022-07-30T00:46:07.604Z,0.00
2022-07-30T00:47:07.589Z,0.00
2022-07-30T00:48:07.640Z,0.00
2022-07-30T00:49:07.705Z,0.00
2022-07-30T00:50:07.704Z,0.00
2022-07-30T00:51:07.745Z,0.00
2022-07-30T00:52:07.779Z,0.00
2022-07-30T00:53:07.816Z,0.00
2022-07-30T00:54:07.857Z,0.00
2022-07-30T00:55:07.893Z,0.00
2022-07-30T00:56:07.931Z,0.00
2022-07-30T00:57:07.973Z,0.00
2022-07-30T00:58:08.007Z,0.00
2022-07-30T00:59:08.046Z,0.00
2022-07-30T01:00:08.083Z,0.00
2022-07-30T01:01:08.199Z,0.00
2022-07-30T01:02:08.203Z,0.00
2022-07-30T01:03:08.195Z,0.00
2022-07-30T01:04:08.235Z,0.00
2022-07-30T01:05:08.274Z,0.00
2022-07-30T01:06:14.218Z,0.00
2022-07-30T01:07:08.347Z,0.00
2022-07-30T01:08:08.387Z,0.00
2022-07-30T01:09:08.431Z,0.00
2022-07-30T01:10:08.463Z,0.00
2022-07-30T01:11:08.499Z,0.00
2022-07-30T01:12:08.549Z,0.00
2022-07-30T01:13:08.579Z,0.00
2022-07-30T01:14:08.622Z,0.00
2022-07-30T01:15:08.652Z,0.00
2022-07-30T01:16:08.720Z,0.00
2022-07-30T01:17:08.730Z,0.00
2022-07-30T01:18:08.771Z,0.00
2022-07-30T01:19:08.801Z,0.00
2022-07-30T01:20:08.842Z,0.00
2022-07-30T01:21:08.878Z,0.00
2022-07-30T01:22:08.918Z,0.00
2022-07-30T01:23:08.952Z,0.00
2022-07-30T01:24:09.000Z,0.00
2022-07-30T01:25:09.030Z,0.00
2022-07-30T01:26:09.071Z,0.00
2022-07-30T01:27:09.109Z,0.00
2022-07-30T01:28:09.146Z,0.00
2022-07-30T01:29:09.184Z,0.00
2022-07-30T01:30:09.222Z,0.00
2022-07-30T01:31:09.294Z,0.00
2022-07-30T01:32:09.299Z,0.00
2022-07-30T01:33:09.334Z,0.00
2022-07-30T01:34:09.373Z,0.00
2022-07-30T01:35:09.415Z,0.00
2022-07-30T01:36:09.449Z,0.00
2022-07-30T01:37:09.484Z,0.00
2022-07-30T01:38:09.527Z,0.00
2022-07-30T01:39:09.561Z,0.00
2022-07-30T01:40:09.600Z,0.00
2022-07-30T01:41:09.651Z,0.00
2022-07-30T01:42:09.677Z,0.00
2022-07-30T01:43:09.714Z,0.00
2022-07-30T01:44:09.753Z,0.00
2022-07-30T01:45:09.788Z,0.00
2022-07-30T01:46:09.916Z,0.00
2022-07-30T01:47:09.866Z,0.00
2022-07-30T01:48:09.902Z,0.00
2022-07-30T01:49:09.995Z,0.00
2022-07-30T01:50:11.065Z,0.00
2022-07-30T01:51:10.015Z,0.00
2022-07-30T01:52:10.054Z,0.00
2022-07-30T01:53:10.090Z,0.00
2022-07-30T01:54:10.135Z,0.00
2022-07-30T01:55:11.548Z,0.00
2022-07-30T01:56:10.715Z,0.00
2022-07-30T01:57:10.240Z,0.00
2022-07-30T01:58:10.288Z,0.00
2022-07-30T01:59:10.316Z,0.00
2022-07-30T02:00:10.385Z,0.00
2022-07-30T02:01:10.445Z,0.00
2022-07-30T02:02:10.434Z,0.00
2022-07-30T02:03:10.505Z,0.00
2022-07-30T02:04:10.507Z,0.00
2022-07-30T02:05:10.542Z,0.00
2022-07-30T02:06:10.586Z,0.00
2022-07-30T02:07:10.618Z,0.00
2022-07-30T02:08:10.659Z,0.00
2022-07-30T02:09:11.501Z,0.00
2022-07-30T02:10:10.734Z,0.00
2022-07-30T02:11:10.768Z,0.00
2022-07-30T02:12:10.806Z,0.00
2022-07-30T02:13:10.845Z,0.00
2022-07-30T02:14:10.884Z,0.00
2022-07-30T02:15:10.923Z,0.00
2022-07-30T02:16:11.005Z,0.00
2022-07-30T02:17:18.873Z,0.00
2022-07-30T02:18:11.032Z,0.00
2022-07-30T02:19:11.073Z,0.00
2022-07-30T02:20:11.110Z,0.00
2022-07-30T02:21:11.740Z,0.00
2022-07-30T02:22:11.182Z,0.00
2022-07-30T02:23:11.224Z,0.00
2022-07-30T02:24:11.260Z,0.00
2022-07-30T02:25:11.296Z,0.00
2022-07-30T02:26:11.334Z,0.00
2022-07-30T02:27:11.369Z,0.00
2022-07-30T02:28:11.408Z,0.00
2022-07-30T02:29:11.836Z,0.00
2022-07-30T02:30:11.493Z,0.00
2022-07-30T02:31:17.333Z,0.00
2022-07-30T02:32:11.559Z,0.00
2022-07-30T02:33:11.596Z,0.00
2022-07-30T02:34:11.635Z,0.00
2022-07-30T02:35:11.671Z,0.00
2022-07-30T02:36:11.710Z,0.00
2022-07-30T02:37:11.746Z,0.00
2022-07-30T02:38:11.785Z,0.00
2022-07-30T02:39:11.819Z,0.00
2022-07-30T02:40:11.860Z,0.00
2022-07-30T02:41:11.896Z,0.00
2022-07-30T02:42:11.935Z,0.00
2022-07-30T02:43:11.970Z,0.00
2022-07-30T02:44:12.010Z,0.00
2022-07-30T02:45:12.044Z,0.00
2022-07-30T02:46:12.155Z,0.00
2022-07-30T02:47:12.187Z,0.00
2022-07-30T02:48:12.160Z,0.00
2022-07-30T02:49:12.256Z,0.00
2022-07-30T02:50:12.235Z,0.00
2022-07-30T02:51:12.270Z,0.00
2022-07-30T02:52:12.311Z,0.00
2022-07-30T02:53:12.349Z,0.00
2022-07-30T02:54:12.603Z,0.00
2022-07-30T02:55:12.420Z,0.00
2022-07-30T02:56:12.462Z,0.00
2022-07-30T02:57:12.505Z,0.00
2022-07-30T02:58:12.546Z,0.00
2022-07-30T02:59:12.574Z,0.00
2022-07-30T03:00:12.610Z,0.00
2022-07-30T03:01:12.733Z,0.00
2022-07-30T03:02:12.807Z,0.00
2022-07-30T03:03:12.724Z,0.00
2022-07-30T03:04:12.759Z,0.00
2022-07-30T03:05:12.796Z,0.00
2022-07-30T03:06:12.836Z,4.00
2022-07-30T03:07:12.983Z,4.00
2022-07-30T03:08:12.909Z,4.00
2022-07-30T03:09:12.944Z,0.00
2022-07-30T03:10:12.985Z,4.00
2022-07-30T03:11:13.021Z,4.00
2022-07-30T03:12:13.059Z,0.00
2022-07-30T03:13:13.096Z,4.00
2022-07-30T03:14:13.134Z,4.00
2022-07-30T03:15:13.170Z,4.00
2022-07-30T03:16:13.241Z,4.00
2022-07-30T03:17:13.246Z,4.00
2022-07-30T03:18:13.287Z,4.00
2022-07-30T03:19:13.320Z,8.00
2022-07-30T03:20:13.360Z,8.00
2022-07-30T03:21:13.395Z,4.00
2022-07-30T03:22:13.435Z,8.00
2022-07-30T03:23:13.469Z,8.00
2022-07-30T03:24:13.510Z,8.00
2022-07-30T03:25:13.545Z,8.00
2022-07-30T03:26:13.587Z,8.00
2022-07-30T03:27:13.621Z,8.00
2022-07-30T03:28:13.658Z,12.00
2022-07-30T03:29:13.699Z,12.00
2022-07-30T03:30:13.733Z,12.00
2022-07-30T03:31:13.794Z,8.00
2022-07-30T03:32:15.012Z,12.00
2022-07-30T03:33:13.843Z,12.00
2022-07-30T03:34:14.483Z,16.00
2022-07-30T03:35:17.021Z,16.00
2022-07-30T03:36:13.956Z,16.00
2022-07-30T03:37:13.994Z,20.00
2022-07-30T03:38:14.033Z,16.00
2022-07-30T03:39:14.068Z,16.00
2022-07-30T03:40:14.107Z,20.00
2022-07-30T03:41:14.146Z,24.00
2022-07-30T03:42:14.182Z,24.00
2022-07-30T03:43:18.420Z,24.00
2022-07-30T03:44:14.255Z,24.00
2022-07-30T03:45:14.292Z,28.00
2022-07-30T03:46:14.379Z,28.00
2022-07-30T03:47:14.367Z,28.00
2022-07-30T03:48:14.406Z,32.00
2022-07-30T03:49:14.475Z,32.00
2022-07-30T03:50:14.479Z,32.00
2022-07-30T03:51:14.515Z,36.00
2022-07-30T03:52:14.555Z,36.00
2022-07-30T03:53:14.589Z,36.00
2022-07-30T03:54:14.635Z,36.00
2022-07-30T03:55:14.676Z,40.00
2022-07-30T03:56:14.703Z,40.00
2022-07-30T03:57:15.317Z,40.00
2022-07-30T03:58:14.779Z,40.00
2022-07-30T03:59:14.814Z,40.00
2022-07-30T04:00:14.860Z,40.00
2022-07-30T04:01:14.890Z,40.00
2022-07-30T04:02:14.930Z,40.00
2022-07-30T04:03:14.962Z,40.00
2022-07-30T04:04:15.003Z,44.00
2022-07-30T04:05:15.037Z,44.00
2022-07-30T04:06:15.077Z,44.00
2022-07-30T04:07:15.114Z,48.00
2022-07-30T04:08:15.149Z,48.00
2022-07-30T04:09:15.187Z,52.00
2022-07-30T04:10:15.228Z,52.00
2022-07-30T04:11:15.270Z,56.00
2022-07-30T04:12:15.300Z,60.00
2022-07-30T04:13:15.337Z,64.00
2022-07-30T04:14:15.376Z,64.00
2022-07-30T04:16:34.294Z,68.00
2022-07-30T04:16:39.498Z,72.00
2022-07-30T04:17:15.512Z,76.00
2022-07-30T04:18:15.524Z,76.00
2022-07-30T04:19:15.559Z,80.00
2022-07-30T04:20:18.086Z,84.00
2022-07-30T04:21:16.954Z,84.00
2022-07-30T04:22:15.672Z,88.00
2022-07-30T04:23:15.709Z,92.00
2022-07-30T04:24:15.747Z,92.00
2022-07-30T04:25:24.198Z,92.00
2022-07-30T04:26:15.821Z,100.00
2022-07-30T04:27:15.972Z,100.00
2022-07-30T04:28:15.895Z,104.00
2022-07-30T04:29:18.071Z,104.00
2022-07-30T04:30:15.972Z,104.00
2022-07-30T04:31:16.094Z,104.00
2022-07-30T04:32:16.054Z,108.00
2022-07-30T04:33:16.082Z,112.00
2022-07-30T04:34:16.118Z,112.00
2022-07-30T04:35:49.709Z,112.00
2022-07-30T04:36:16.502Z,116.00
2022-07-30T04:37:16.230Z,120.00
2022-07-30T04:38:23.475Z,124.00
2022-07-30T04:40:09.242Z,128.00
2022-07-30T04:41:09.278Z,132.00
2022-07-30T04:43:02.485Z,136.00
2022-07-30T04:44:02.514Z,140.00
2022-07-30T04:45:55.690Z,144.00
2022-07-30T04:46:55.727Z,144.00
2022-07-30T04:48:48.768Z,152.00
2022-07-30T04:49:48.734Z,156.00
2022-07-30T04:51:53.059Z,168.00
2022-07-30T04:52:53.059Z,168.00
2022-07-30T04:54:46.038Z,176.00
2022-07-30T04:55:46.097Z,184.00
2022-07-30T04:57:50.122Z,188.00
2022-07-30T04:58:50.158Z,196.00
2022-07-30T05:00:43.183Z,200.00
2022-07-30T05:01:43.239Z,208.00
2022-07-30T05:03:58.407Z,220.00
2022-07-30T05:04:58.480Z,224.00
2022-07-30T05:07:02.997Z,236.00
2022-07-30T05:08:02.528Z,240.00
2022-07-30T05:10:06.595Z,252.00
2022-07-30T05:11:06.621Z,260.00
2022-07-30T05:12:59.664Z,272.00
2022-07-30T05:13:59.702Z,280.00
2022-07-30T05:14:59.735Z,284.00
2022-07-30T05:15:59.838Z,292.00
2022-07-30T05:17:00.132Z,296.00
2022-07-30T05:17:59.865Z,300.00
2022-07-30T05:18:59.883Z,304.00
2022-07-30T05:19:59.922Z,308.00
2022-07-30T05:20:59.958Z,312.00
2022-07-30T05:22:04.672Z,316.00
2022-07-30T05:23:00.033Z,320.00
2022-07-30T05:24:00.074Z,332.00
2022-07-30T05:25:00.122Z,336.00
2022-07-30T05:26:00.145Z,344.00
2022-07-30T05:27:00.419Z,352.00
2022-07-30T05:28:00.219Z,360.00
2022-07-30T05:29:00.255Z,364.00
2022-07-30T05:30:00.296Z,372.00
2022-07-30T05:31:00.389Z,376.00
2022-07-30T05:32:02.588Z,384.00
2022-07-30T05:33:01.424Z,388.00
2022-07-30T05:34:03.297Z,396.00
2022-07-30T05:35:00.488Z,400.00
2022-07-30T05:36:00.519Z,396.00
2022-07-30T05:37:00.758Z,400.00
2022-07-30T05:38:00.593Z,400.00
2022-07-30T05:39:00.642Z,400.00
2022-07-30T05:40:03.143Z,400.00
2022-07-30T05:41:00.704Z,408.00
2022-07-30T05:42:00.746Z,412.00
2022-07-30T05:43:00.789Z,416.00
2022-07-30T05:44:00.850Z,416.00
2022-07-30T05:45:00.855Z,416.00
2022-07-30T05:46:00.952Z,420.00
2022-07-30T05:47:01.289Z,420.00
2022-07-30T05:48:00.971Z,420.00
2022-07-30T05:49:01.087Z,424.00
2022-07-30T05:50:04.813Z,428.00
2022-07-30T05:51:01.077Z,428.00
2022-07-30T05:52:01.113Z,424.00
2022-07-30T05:53:01.154Z,420.00
2022-07-30T05:54:01.190Z,416.00
2022-07-30T05:55:01.229Z,412.00
2022-07-30T05:56:01.267Z,412.00
2022-07-30T05:57:01.628Z,412.00
2022-07-30T05:58:01.340Z,412.00
2022-07-30T05:59:01.381Z,412.00
2022-07-30T06:00:01.418Z,408.00
2022-07-30T06:01:01.452Z,404.00
2022-07-30T06:02:01.604Z,408.00
2022-07-30T06:03:01.525Z,408.00
2022-07-30T06:04:01.602Z,408.00
2022-07-30T06:05:01.694Z,408.00
2022-07-30T06:06:01.641Z,416.00
2022-07-30T06:07:02.111Z,416.00
2022-07-30T06:08:01.713Z,416.00
2022-07-30T06:09:01.754Z,420.00
2022-07-30T06:10:01.800Z,428.00
2022-07-30T06:11:01.827Z,440.00
2022-07-30T06:12:01.863Z,448.00
2022-07-30T06:13:01.900Z,448.00
2022-07-30T06:14:01.935Z,448.00
2022-07-30T06:15:01.973Z,444.00
2022-07-30T06:16:02.086Z,440.00
2022-07-30T06:17:02.549Z,432.00
2022-07-30T06:18:02.582Z,428.00
2022-07-30T06:19:02.127Z,424.00
2022-07-30T06:20:02.161Z,424.00
2022-07-30T06:21:02.198Z,428.00
2022-07-30T06:22:05.931Z,440.00
2022-07-30T06:23:02.276Z,448.00
2022-07-30T06:24:02.320Z,460.00
2022-07-30T06:25:02.374Z,460.00
2022-07-30T06:26:02.383Z,468.00
2022-07-30T06:27:02.826Z,476.00
2022-07-30T06:28:20.932Z,488.00
2022-07-30T06:29:02.502Z,496.00
2022-07-30T06:30:02.534Z,496.00
2022-07-30T06:31:02.709Z,504.00
2022-07-30T06:32:02.609Z,500.00
2022-07-30T06:33:02.659Z,508.00
2022-07-30T06:34:02.683Z,512.00
2022-07-30T06:35:05.017Z,524.00
2022-07-30T06:36:02.757Z,532.00
2022-07-30T06:37:03.126Z,548.00
2022-07-30T06:38:07.616Z,556.00
2022-07-30T06:39:02.877Z,560.00
2022-07-30T06:40:02.909Z,572.00
2022-07-30T06:41:04.579Z,572.00
2022-07-30T06:42:02.989Z,568.00
2022-07-30T06:43:03.022Z,560.00
2022-07-30T06:44:03.069Z,548.00
2022-07-30T06:45:03.101Z,536.00
2022-07-30T06:46:03.209Z,524.00
2022-07-30T06:47:07.916Z,520.00
2022-07-30T06:48:03.205Z,520.00
2022-07-30T06:49:03.304Z,516.00
2022-07-30T06:50:03.286Z,508.00
2022-07-30T06:51:03.323Z,512.00
2022-07-30T06:52:03.356Z,520.00
2022-07-30T06:53:03.395Z,520.00
2022-07-30T06:54:03.434Z,520.00
2022-07-30T06:55:03.471Z,524.00
2022-07-30T06:56:03.507Z,520.00
2022-07-30T06:57:03.915Z,512.00
2022-07-30T06:58:03.582Z,512.00
2022-07-30T06:59:03.623Z,504.00
2022-07-30T07:00:03.657Z,500.00
2022-07-30T07:01:03.735Z,500.00
2022-07-30T07:02:03.732Z,496.00
2022-07-30T07:03:03.773Z,500.00
2022-07-30T07:04:03.869Z,504.00
2022-07-30T07:05:03.846Z,508.00
2022-07-30T07:06:03.884Z,516.00
2022-07-30T07:07:12.571Z,520.00
2022-07-30T07:08:03.959Z,528.00
2022-07-30T07:09:03.997Z,536.00
2022-07-30T07:10:04.033Z,552.00
2022-07-30T07:11:04.074Z,564.00
2022-07-30T07:12:04.108Z,568.00
2022-07-30T07:13:04.146Z,576.00
2022-07-30T07:14:04.985Z,580.00
2022-07-30T07:15:04.222Z,588.00
2022-07-30T07:16:04.279Z,592.00
2022-07-30T07:17:04.730Z,600.00
2022-07-30T07:18:04.337Z,600.00
2022-07-30T07:19:04.375Z,596.00
2022-07-30T07:20:04.412Z,588.00
2022-07-30T07:21:04.451Z,588.00
2022-07-30T07:22:04.486Z,596.00
2022-07-30T07:23:09.390Z,604.00
2022-07-30T07:24:04.559Z,620.00
2022-07-30T07:25:04.598Z,632.00
2022-07-30T07:26:04.638Z,640.00
2022-07-30T07:27:04.682Z,648.00
2022-07-30T07:28:11.921Z,644.00
2022-07-30T07:29:05.375Z,648.00
2022-07-30T07:30:05.981Z,644.00
2022-07-30T07:31:04.898Z,656.00
2022-07-30T07:32:07.601Z,656.00
2022-07-30T07:33:04.899Z,652.00
2022-07-30T07:34:04.937Z,652.00
2022-07-30T07:35:04.982Z,656.00
2022-07-30T07:36:05.011Z,660.00
2022-07-30T07:37:05.052Z,660.00
2022-07-30T07:38:05.088Z,664.00
2022-07-30T07:39:05.129Z,672.00
2022-07-30T07:40:05.162Z,672.00
2022-07-30T07:41:05.203Z,684.00
2022-07-30T07:42:05.241Z,688.00
2022-07-30T07:43:05.277Z,692.00
2022-07-30T07:44:05.316Z,692.00
2022-07-30T07:45:05.353Z,688.00
2022-07-30T07:46:05.475Z,692.00
2022-07-30T07:47:05.429Z,696.00
2022-07-30T07:48:05.467Z,704.00
2022-07-30T07:49:05.533Z,720.00
2022-07-30T07:50:05.542Z,736.00
2022-07-30T07:51:09.541Z,748.00
2022-07-30T07:52:05.617Z,764.00
2022-07-30T07:53:05.657Z,780.00
2022-07-30T07:54:21.129Z,800.00
2022-07-30T07:55:05.734Z,820.00
2022-07-30T07:56:05.771Z,836.00
2022-07-30T07:57:06.125Z,840.00
2022-07-30T07:58:05.846Z,844.00
2022-07-30T07:59:05.887Z,852.00
2022-07-30T08:00:05.923Z,848.00
2022-07-30T08:01:05.992Z,844.00
2022-07-30T08:02:06.036Z,844.00
2022-07-30T08:03:06.036Z,840.00
2022-07-30T08:04:10.360Z,844.00
2022-07-30T08:05:06.114Z,848.00
2022-07-30T08:06:06.650Z,840.00
2022-07-30T08:07:06.187Z,840.00
2022-07-30T08:08:06.224Z,836.00
2022-07-30T08:09:06.263Z,840.00
2022-07-30T08:10:06.301Z,848.00
2022-07-30T08:11:06.344Z,856.00
2022-07-30T08:12:06.376Z,876.00
2022-07-30T08:13:06.417Z,884.00
2022-07-30T08:14:06.454Z,896.00
2022-07-30T08:15:06.495Z,896.00
2022-07-30T08:16:06.529Z,904.00
2022-07-30T08:17:07.175Z,912.00
2022-07-30T08:18:06.607Z,928.00
2022-07-30T08:19:06.647Z,936.00
2022-07-30T08:20:06.682Z,948.00
2022-07-30T08:21:06.719Z,956.00
2022-07-30T08:22:06.762Z,964.00
2022-07-30T08:23:06.798Z,968.00
2022-07-30T08:24:06.833Z,976.00
2022-07-30T08:25:06.874Z,984.00
2022-07-30T08:26:06.910Z,996.00
2022-07-30T08:27:06.956Z,1000.00
2022-07-30T08:28:06.989Z,1016.00
2022-07-30T08:29:07.026Z,1012.00
2022-07-30T08:30:07.066Z,1016.00
2022-07-30T08:31:07.104Z,1016.00
2022-07-30T08:32:07.141Z,1012.00
2022-07-30T08:33:07.181Z,1012.00
2022-07-30T08:34:07.217Z,1016.00
2022-07-30T08:35:07.328Z,1016.00
2022-07-30T08:36:09.540Z,1016.00
2022-07-30T08:37:07.336Z,1016.00
2022-07-30T08:38:07.375Z,1016.00
2022-07-30T08:39:07.413Z,1016.00
2022-07-30T08:40:07.447Z,1016.00
2022-07-30T08:41:07.511Z,1008.00
2022-07-30T08:42:07.522Z,1004.00
2022-07-30T08:43:07.562Z,996.00
2022-07-30T08:44:11.600Z,1000.00
2022-07-30T08:45:07.641Z,1000.00
2022-07-30T08:46:07.679Z,1000.00
2022-07-30T08:47:07.716Z,1008.00
2022-07-30T08:48:07.755Z,1020.00
2022-07-30T08:49:11.225Z,1020.00
2022-07-30T08:50:07.831Z,1020.00
2022-07-30T08:51:07.871Z,1024.00
2022-07-30T08:52:07.910Z,1032.00
2022-07-30T08:53:07.946Z,1048.00
2022-07-30T08:54:07.985Z,1060.00
2022-07-30T08:55:08.023Z,1080.00
2022-07-30T08:56:08.061Z,1096.00
2022-07-30T08:57:08.106Z,1116.00
2022-07-30T08:58:08.139Z,1124.00
2022-07-30T08:59:08.178Z,1124.00
2022-07-30T09:00:08.217Z,1128.00
2022-07-30T09:01:08.313Z,1136.00
2022-07-30T09:02:12.435Z,1144.00
2022-07-30T09:03:08.340Z,1144.00
2022-07-30T09:04:08.390Z,1152.00
2022-07-30T09:05:08.410Z,1160.00
2022-07-30T09:06:08.451Z,1172.00
2022-07-30T09:07:08.489Z,1172.00
2022-07-30T09:08:09.023Z,1172.00
2022-07-30T09:09:08.565Z,1176.00
2022-07-30T09:10:08.605Z,1180.00
2022-07-30T09:11:08.643Z,1168.00
2022-07-30T09:12:08.679Z,1164.00
2022-07-30T09:13:08.727Z,1156.00
2022-07-30T09:14:08.819Z,1152.00
2022-07-30T09:15:08.798Z,1140.00
2022-07-30T09:16:08.876Z,1136.00
2022-07-30T09:17:08.874Z,1132.00
2022-07-30T09:18:08.912Z,1132.00
2022-07-30T09:19:08.953Z,1136.00
2022-07-30T09:20:08.998Z,1136.00
2022-07-30T09:21:09.035Z,1144.00
2022-07-30T09:22:09.069Z,1148.00
2022-07-30T09:23:09.109Z,1156.00
2022-07-30T09:24:09.146Z,1160.00
2022-07-30T09:25:09.185Z,1160.00
2022-07-30T09:26:09.224Z,1152.00
2022-07-30T09:27:09.264Z,1152.00
2022-07-30T09:28:15.695Z,1152.00
2022-07-30T09:29:09.345Z,1156.00
2022-07-30T09:30:09.379Z,1156.00
2022-07-30T09:31:09.418Z,1168.00
2022-07-30T09:32:09.459Z,1184.00
2022-07-30T09:33:09.496Z,1200.00
2022-07-30T09:34:09.551Z,1220.00
2022-07-30T09:35:09.577Z,1228.00
2022-07-30T09:36:09.613Z,1228.00
2022-07-30T09:37:09.655Z,1228.00
2022-07-30T09:38:09.702Z,1232.00
2022-07-30T09:39:09.739Z,1236.00
2022-07-30T09:40:09.769Z,1236.00
2022-07-30T09:41:29.022Z,1236.00
2022-07-30T09:42:09.848Z,1232.00
2022-07-30T09:43:09.887Z,1228.00
2022-07-30T09:44:09.926Z,1228.00
2022-07-30T09:45:09.967Z,1244.00
2022-07-30T09:46:10.004Z,1248.00
2022-07-30T09:47:10.046Z,1236.00
2022-07-30T09:48:10.087Z,1232.00
2022-07-30T09:49:10.286Z,1224.00
2022-07-30T09:50:10.165Z,1200.00
2022-07-30T09:51:15.653Z,1172.00
2022-07-30T09:52:10.389Z,1156.00
2022-07-30T09:53:11.877Z,1168.00
2022-07-30T09:54:10.318Z,1192.00
2022-07-30T09:55:10.359Z,1220.00
2022-07-30T09:56:10.395Z,1240.00
2022-07-30T09:57:23.114Z,1236.00
2022-07-30T09:59:18.660Z,1268.00
2022-07-30T10:00:10.556Z,1292.00
2022-07-30T10:01:10.600Z,1312.00
2022-07-30T10:02:10.724Z,1288.00
2022-07-30T10:03:12.589Z,1284.00
2022-07-30T10:04:10.711Z,1292.00
2022-07-30T10:05:10.753Z,1316.00
2022-07-30T10:06:11.234Z,1332.00
2022-07-30T10:07:10.830Z,1356.00
2022-07-30T10:08:16.775Z,1380.00
2022-07-30T10:09:14.113Z,1436.00
2022-07-30T10:10:10.948Z,1500.00
2022-07-30T10:11:10.989Z,1528.00
2022-07-30T10:12:11.210Z,1544.00
2022-07-30T10:13:11.066Z,1544.00
2022-07-30T10:14:11.105Z,1588.00
2022-07-30T10:15:11.146Z,1604.00
2022-07-30T10:16:11.185Z,1600.00
2022-07-30T10:17:11.225Z,1600.00
2022-07-30T10:18:11.264Z,1644.00
2022-07-30T10:19:18.071Z,1664.00
2022-07-30T10:20:12.351Z,1652.00
2022-07-30T10:21:11.383Z,1672.00
2022-07-30T10:22:11.557Z,1648.00
2022-07-30T10:23:15.540Z,1620.00
2022-07-30T10:24:11.501Z,1608.00
2022-07-30T10:25:11.541Z,1572.00
2022-07-30T10:26:11.589Z,1584.00
2022-07-30T10:27:11.957Z,1580.00
2022-07-30T10:28:11.661Z,1564.00
2022-07-30T10:29:12.881Z,1544.00
2022-07-30T10:30:12.425Z,1500.00
2022-07-30T10:31:47.163Z,1468.00
2022-07-30T10:32:11.824Z,1464.00
2022-07-30T10:33:37.461Z,1440.00
2022-07-30T10:34:11.906Z,1448.00
2022-07-30T10:35:11.940Z,1452.00
2022-07-30T10:36:11.981Z,1456.00
2022-07-30T10:37:12.350Z,1464.00
2022-07-30T10:38:19.256Z,1444.00
2022-07-30T10:40:16.125Z,1464.00
2022-07-30T10:41:16.158Z,1476.00
2022-07-30T10:43:20.254Z,1484.00
2022-07-30T10:44:20.257Z,1504.00
2022-07-30T10:46:24.336Z,1488.00
2022-07-30T10:47:29.110Z,1504.00
2022-07-30T10:49:28.615Z,1532.00
2022-07-30T10:50:28.519Z,1504.00
2022-07-30T10:52:32.584Z,1516.00
2022-07-30T10:53:32.618Z,1544.00
2022-07-30T10:55:38.828Z,1560.00
2022-07-30T10:56:36.746Z,1592.00
2022-07-30T10:58:40.802Z,1624.00
2022-07-30T10:59:40.838Z,1628.00
2022-07-30T11:01:47.418Z,1696.00
2022-07-30T11:02:44.942Z,1668.00
2022-07-30T11:04:37.934Z,1600.00
2022-07-30T11:05:45.192Z,1536.00
2022-07-30T11:07:42.034Z,1632.00
2022-07-30T11:08:42.761Z,1696.00
2022-07-30T11:10:46.141Z,1672.00
2022-07-30T11:12:01.367Z,1604.00
2022-07-30T11:13:50.261Z,1596.00
2022-07-30T11:14:50.269Z,1660.00
2022-07-30T11:16:54.346Z,1640.00
2022-07-30T11:17:54.377Z,1620.00
2022-07-30T11:19:59.290Z,1568.00
2022-07-30T11:20:58.477Z,1540.00
2022-07-30T11:23:02.543Z,1424.00
2022-07-30T11:24:02.578Z,1376.00
2022-07-30T11:26:07.119Z,1444.00
2022-07-30T11:27:06.678Z,1496.00
2022-07-30T11:29:10.744Z,1664.00
2022-07-30T11:30:10.780Z,1764.00
2022-07-30T11:32:14.847Z,1812.00
2022-07-30T11:33:14.884Z,1768.00
2022-07-30T11:35:18.946Z,1748.00
2022-07-30T11:36:19.000Z,1712.00
2022-07-30T11:38:23.051Z,1648.00
2022-07-30T11:39:23.091Z,1616.00
2022-07-30T11:41:27.182Z,1552.00
2022-07-30T11:42:27.188Z,1564.00
2022-07-30T11:44:20.204Z,1720.00
2022-07-30T11:45:20.211Z,1820.00
2022-07-30T11:47:24.275Z,1844.00
2022-07-30T11:48:24.314Z,1924.00
2022-07-30T11:50:28.415Z,1988.00
2022-07-30T11:51:28.417Z,1844.00
2022-07-30T11:53:32.482Z,1932.00
2022-07-30T11:54:32.517Z,1960.00
2022-07-30T11:56:36.598Z,2056.00
2022-07-30T11:57:38.418Z,2052.00
2022-07-30T11:59:40.700Z,1684.00
2022-07-30T12:00:40.747Z,1548.00
2022-07-30T12:02:44.875Z,1468.00
2022-07-30T12:03:44.850Z,1496.00
2022-07-30T12:05:52.561Z,1548.00
2022-07-30T12:06:48.955Z,1576.00
2022-07-30T12:08:58.230Z,1536.00
2022-07-30T12:09:53.062Z,1512.00
2022-07-30T12:11:57.136Z,1636.00
2022-07-30T12:12:57.167Z,1672.00
2022-07-30T12:14:50.150Z,1704.00
2022-07-30T12:15:50.188Z,1676.00
2022-07-30T12:18:05.609Z,1540.00
2022-07-30T12:18:54.292Z,1584.00
2022-07-30T12:20:59.446Z,1552.00
2022-07-30T12:21:58.398Z,1588.00
2022-07-30T12:24:02.469Z,1632.00
2022-07-30T12:25:02.504Z,1720.00
2022-07-30T12:27:06.743Z,1956.00
2022-07-30T12:28:06.618Z,1992.00
2022-07-30T12:30:10.685Z,1704.00
2022-07-30T12:31:10.720Z,1588.00
2022-07-30T12:32:10.762Z,1616.00
2022-07-30T12:33:10.808Z,1648.00
2022-07-30T12:34:10.848Z,1700.00
2022-07-30T12:35:10.890Z,1604.00
2022-07-30T12:36:10.935Z,1600.00
2022-07-30T12:37:10.977Z,1476.00
2022-07-30T12:38:11.019Z,1540.00
2022-07-30T12:39:11.063Z,1564.00
2022-07-30T12:40:14.802Z,1472.00
2022-07-30T12:41:11.143Z,1460.00
2022-07-30T12:42:11.192Z,1524.00
2022-07-30T12:43:13.731Z,1584.00
2022-07-30T12:44:11.294Z,1596.00
2022-07-30T12:45:11.329Z,1652.00
2022-07-30T12:46:14.844Z,1756.00
2022-07-30T12:47:11.401Z,1800.00
2022-07-30T12:48:11.446Z,1752.00
2022-07-30T12:49:21.382Z,1684.00
2022-07-30T12:50:11.610Z,1544.00
2022-07-30T12:51:11.576Z,1476.00
2022-07-30T12:52:18.426Z,1460.00
2022-07-30T12:53:11.657Z,1468.00
2022-07-30T12:54:11.701Z,1460.00
2022-07-30T12:55:11.743Z,1476.00
2022-07-30T12:56:11.787Z,1484.00
2022-07-30T12:57:11.828Z,1452.00
2022-07-30T12:58:11.894Z,1412.00
2022-07-30T12:59:11.917Z,1368.00
2022-07-30T13:00:11.957Z,1340.00
2022-07-30T13:01:12.050Z,1316.00
2022-07-30T13:02:12.043Z,1304.00
2022-07-30T13:03:12.085Z,1288.00
2022-07-30T13:04:12.127Z,1280.00
2022-07-30T13:05:12.278Z,1272.00
2022-07-30T13:06:12.213Z,1276.00
2022-07-30T13:07:12.259Z,1280.00
2022-07-30T13:08:12.299Z,1292.00
2022-07-30T13:09:12.343Z,1340.00
2022-07-30T13:10:12.387Z,1344.00
2022-07-30T13:11:12.431Z,1328.00
2022-07-30T13:12:12.473Z,1324.00
2022-07-30T13:13:12.518Z,1320.00
2022-07-30T13:14:12.558Z,1340.00
2022-07-30T13:15:12.603Z,1408.00
2022-07-30T13:16:12.654Z,1440.00
2022-07-30T13:17:12.690Z,1432.00
2022-07-30T13:18:12.729Z,1408.00
2022-07-30T13:19:12.774Z,1372.00
2022-07-30T13:20:12.818Z,1320.00
2022-07-30T13:21:12.860Z,1304.00
2022-07-30T13:22:12.904Z,1340.00
2022-07-30T13:23:12.946Z,1380.00
2022-07-30T13:24:18.073Z,1396.00
2022-07-30T13:25:13.035Z,1400.00
2022-07-30T13:26:13.076Z,1416.00
2022-07-30T13:27:13.119Z,1448.00